Williams, OR

7:50 AM PST on February 27, 2015 (GMT -0800)
Sexton Summit | Change Station
CLOSE
Current Station
Airport
Location: Sexton Summit,
Elevation: 3839 ft
Nearby Weather Stations

Elev 3839 ft 42.60 °N, 123.36 °W | Updated 54 minutes ago

Overcast
Overcast
36 °F
Feels Like 33 °F
N
4
Wind Variable Wind from Variable

Today
High -- | Low -- °F
--% Chance of Precip.
Yesterday
High -- | Low -- °F
Precip. -- in
6:51 AM 6:00 PM
Waxing Gibbous, 69% visible
Pressure 29.81 in
Visibility 0.2 miles
Clouds
Windchill 33 °F
Dew Point 36 °F
Humidity 100%
Rainfall 0.04 in
Snow Depth Not available.
UV Not available.
Pollen 1.30 out of 12
Air Quality Not available.
Flu Activity Not available.
METAR KSXT 271456Z AUTO VRB03KT 1/4SM FG VV002 02/02 A2978 RMK AO2 SNE01 SLP093 P0000 60003 T00220022 56008

More Conditions Fewer Conditions

Pressure 29.81 in
Visibility 0.2 miles
Clouds
Windchill 33 °F
Dew Point 36 °F
Humidity 100%
Rainfall 0.04 in
Snow Depth Not available.
UV Not available.
Pollen 1.30 out of 12
Air Quality Not available.
Flu Activity Not available.
METAR KSXT 271456Z AUTO VRB03KT 1/4SM FG VV002 02/02 A2978 RMK AO2 SNE01 SLP093 P0000 60003 T00220022 56008

More Conditions Fewer Conditions

10-Day Weather Forecast

Almanac

Astronomy

Feb. 27, 2015 Rise Set
Actual Time
Civil Twilight
Nautical Twilight
Astronomical Twilight
Moon
Length of Visible Light
Length of Day
Tomorrow will be .
, % of the Moon is Illuminated

Today's Extremes

State Highs State Lows

Community

WunderPhotos

Upload Photos

1,800,704 photos uploaded!

WunderBlogs® & News

Nearby

Air Quality

  Air Quality AQ Index Pollutant
Not available.

Snow Depth

Station Depth Elevation

Earthquake Activity

City Distance Mag. Time & Date
Minimum magnitude displayed is 2.5.

Coastal Water Temperatures

Place Temperature

Nearby Weather Stations